sensor_id;sensor_type;location;lat;lon;timestamp;pressure;altitude;pressure_sealevel;temperature;humidity
68230;BME280;55048;52.220;5.160;2022-09-16T00:00:12;100957.03;;;14.71;74.93
68230;BME280;55048;52.220;5.160;2022-09-16T00:02:38;100944.41;;;14.67;74.88
68230;BME280;55048;52.220;5.160;2022-09-16T00:05:03;100979.56;;;14.86;75.03
68230;BME280;55048;52.220;5.160;2022-09-16T00:07:29;100963.75;;;14.79;75.12
68230;BME280;55048;52.220;5.160;2022-09-16T00:09:54;100939.34;;;14.65;74.83
68230;BME280;55048;52.220;5.160;2022-09-16T00:12:20;100984.66;;;14.87;75.23
68230;BME280;55048;52.220;5.160;2022-09-16T00:14:46;100973.69;;;14.89;75.11
68230;BME280;55048;52.220;5.160;2022-09-16T00:17:12;100979.84;;;14.89;75.09
68230;BME280;55048;52.220;5.160;2022-09-16T00:19:37;100971.78;;;14.79;74.98
68230;BME280;55048;52.220;5.160;2022-09-16T00:22:02;100974.22;;;14.86;75.28
68230;BME280;55048;52.220;5.160;2022-09-16T00:24:28;100917.59;;;14.57;75.25
68230;BME280;55048;52.220;5.160;2022-09-16T00:26:53;100914.06;;;14.46;75.30
68230;BME280;55048;52.220;5.160;2022-09-16T00:29:19;100917.47;;;14.36;75.12
68230;BME280;55048;52.220;5.160;2022-09-16T00:31:44;100950.78;;;14.56;75.22
68230;BME280;55048;52.220;5.160;2022-09-16T00:34:10;100952.13;;;14.58;75.45
68230;BME280;55048;52.220;5.160;2022-09-16T00:36:35;100948.91;;;14.56;75.49
68230;BME280;55048;52.220;5.160;2022-09-16T00:39:01;100946.75;;;14.53;75.32
68230;BME280;55048;52.220;5.160;2022-09-16T00:41:28;100929.28;;;14.45;75.30
68230;BME280;55048;52.220;5.160;2022-09-16T00:44:06;100950.50;;;14.52;75.41
68230;BME280;55048;52.220;5.160;2022-09-16T00:46:52;100946.22;;;14.51;75.32
68230;BME280;55048;52.220;5.160;2022-09-16T00:49:27;100947.25;;;14.50;75.61
68230;BME280;55048;52.220;5.160;2022-09-16T00:51:59;100912.31;;;14.24;75.42
68230;BME280;55048;52.220;5.160;2022-09-16T00:54:26;100909.13;;;14.22;75.42
68230;BME280;55048;52.220;5.160;2022-09-16T00:56:55;100925.97;;;14.23;75.61
68230;BME280;55048;52.220;5.160;2022-09-16T00:59:35;100937.75;;;14.27;75.81
68230;BME280;55048;52.220;5.160;2022-09-16T01:02:13;100914.84;;;13.99;75.71
68230;BME280;55048;52.220;5.160;2022-09-16T01:04:53;100937.94;;;14.15;75.68
68230;BME280;55048;52.220;5.160;2022-09-16T01:07:28;100976.59;;;14.35;75.63
68230;BME280;55048;52.220;5.160;2022-09-16T01:09:55;100878.56;;;13.71;75.49
68230;BME280;55048;52.220;5.160;2022-09-16T01:12:21;100982.72;;;14.35;75.63
68230;BME280;55048;52.220;5.160;2022-09-16T01:14:47;100906.50;;;13.90;75.53
68230;BME280;55048;52.220;5.160;2022-09-16T01:39:43;100966.59;;;14.20;75.79
68230;BME280;55048;52.220;5.160;2022-09-16T01:42:19;100941.00;;;13.97;75.52
68230;BME280;55048;52.220;5.160;2022-09-16T01:44:59;100844.91;;;13.43;75.95
68230;BME280;55048;52.220;5.160;2022-09-16T01:50:27;100928.97;;;13.94;76.13
68230;BME280;55048;52.220;5.160;2022-09-16T01:55:31;100977.78;;;14.17;76.22
68230;BME280;55048;52.220;5.160;2022-09-16T01:58:05;100899.56;;;13.57;76.34
68230;BME280;55048;52.220;5.160;2022-09-16T02:00:33;100931.09;;;13.92;76.58
68230;BME280;55048;52.220;5.160;2022-09-16T02:03:02;100934.53;;;13.88;76.68
68230;BME280;55048;52.220;5.160;2022-09-16T02:05:40;100980.56;;;14.27;76.79
68230;BME280;55048;52.220;5.160;2022-09-16T02:08:12;100879.25;;;13.61;76.63
68230;BME280;55048;52.220;5.160;2022-09-16T02:10:43;100981.38;;;14.27;76.66
68230;BME280;55048;52.220;5.160;2022-09-16T02:13:51;100970.66;;;14.27;76.97
68230;BME280;55048;52.220;5.160;2022-09-16T02:16:30;100969.00;;;14.21;76.62
68230;BME280;55048;52.220;5.160;2022-09-16T02:19:04;100844.72;;;13.49;76.59
68230;BME280;55048;52.220;5.160;2022-09-16T02:21:33;100891.66;;;13.72;76.85
68230;BME280;55048;52.220;5.160;2022-09-16T02:24:04;100965.06;;;14.34;76.80
68230;BME280;55048;52.220;5.160;2022-09-16T02:26:39;100825.66;;;13.41;76.97
68230;BME280;55048;52.220;5.160;2022-09-16T02:29:11;100976.56;;;14.29;77.08
68230;BME280;55048;52.220;5.160;2022-09-16T02:31:40;100959.81;;;14.07;77.49
68230;BME280;55048;52.220;5.160;2022-09-16T02:34:13;100839.50;;;13.06;77.84
68230;BME280;55048;52.220;5.160;2022-09-16T02:36:42;101012.22;;;14.08;77.60
68230;BME280;55048;52.220;5.160;2022-09-16T02:39:11;100967.28;;;13.73;78.08
68230;BME280;55048;52.220;5.160;2022-09-16T02:41:38;100995.44;;;13.81;78.52
68230;BME280;55048;52.220;5.160;2022-09-16T02:44:05;100943.56;;;13.49;78.03
68230;BME280;55048;52.220;5.160;2022-09-16T02:52:20;100990.94;;;13.86;77.77
68230;BME280;55048;52.220;5.160;2022-09-16T02:55:32;100880.06;;;13.30;77.63
68230;BME280;55048;52.220;5.160;2022-09-16T02:57:45;100907.75;;;13.50;77.58
68230;BME280;55048;52.220;5.160;2022-09-16T03:00:10;100889.94;;;13.29;77.25
68230;BME280;55048;52.220;5.160;2022-09-16T03:02:36;100874.47;;;13.31;77.26
68230;BME280;55048;52.220;5.160;2022-09-16T03:05:03;100963.19;;;13.92;77.32
68230;BME280;55048;52.220;5.160;2022-09-16T03:07:29;100859.47;;;13.25;77.34
68230;BME280;55048;52.220;5.160;2022-09-16T03:09:54;100910.66;;;13.44;77.09
68230;BME280;55048;52.220;5.160;2022-09-16T03:12:32;100985.06;;;13.89;77.52
68230;BME280;55048;52.220;5.160;2022-09-16T03:18:04;100912.22;;;13.40;77.84
68230;BME280;55048;52.220;5.160;2022-09-16T03:20:55;100991.78;;;13.92;77.77
68230;BME280;55048;52.220;5.160;2022-09-16T03:23:55;100982.69;;;13.93;78.02
68230;BME280;55048;52.220;5.160;2022-09-16T03:26:45;100981.63;;;13.94;77.57
68230;BME280;55048;52.220;5.160;2022-09-16T03:29:24;100980.59;;;13.95;77.45
68230;BME280;55048;52.220;5.160;2022-09-16T03:31:55;100973.09;;;13.97;77.52
68230;BME280;55048;52.220;5.160;2022-09-16T03:34:28;100884.41;;;13.36;76.98
68230;BME280;55048;52.220;5.160;2022-09-16T03:37:01;100788.41;;;12.70;77.28
68230;BME280;55048;52.220;5.160;2022-09-16T03:39:28;100864.81;;;13.25;77.24
68230;BME280;55048;52.220;5.160;2022-09-16T03:42:00;100907.25;;;13.53;77.23
68230;BME280;55048;52.220;5.160;2022-09-16T03:44:36;100953.19;;;13.83;77.09
68230;BME280;55048;52.220;5.160;2022-09-16T03:47:02;100924.69;;;13.61;77.18
68230;BME280;55048;52.220;5.160;2022-09-16T03:49:28;100937.03;;;13.67;77.11
68230;BME280;55048;52.220;5.160;2022-09-16T03:51:57;100667.63;;;11.77;76.89
68230;BME280;55048;52.220;5.160;2022-09-16T03:54:23;100738.91;;;12.30;76.79
68230;BME280;55048;52.220;5.160;2022-09-16T03:56:48;100966.91;;;13.59;76.91
68230;BME280;55048;52.220;5.160;2022-09-16T03:59:14;100951.13;;;13.58;76.89
68230;BME280;55048;52.220;5.160;2022-09-16T04:01:39;100871.75;;;13.04;76.68
68230;BME280;55048;52.220;5.160;2022-09-16T04:04:04;100912.22;;;13.40;76.81
68230;BME280;55048;52.220;5.160;2022-09-16T04:06:30;100914.53;;;13.31;76.84
68230;BME280;55048;52.220;5.160;2022-09-16T04:08:55;100912.66;;;13.32;76.85
68230;BME280;55048;52.220;5.160;2022-09-16T04:11:25;100911.00;;;13.25;76.61
68230;BME280;55048;52.220;5.160;2022-09-16T04:13:50;100890.31;;;13.16;76.71
68230;BME280;55048;52.220;5.160;2022-09-16T04:16:20;100922.00;;;13.29;76.71
68230;BME280;55048;52.220;5.160;2022-09-16T04:18:45;100958.13;;;13.64;77.28
68230;BME280;55048;52.220;5.160;2022-09-16T04:21:11;100895.13;;;13.19;76.77
68230;BME280;55048;52.220;5.160;2022-09-16T04:23:36;100900.13;;;13.10;76.76
68230;BME280;55048;52.220;5.160;2022-09-16T04:26:03;100957.22;;;13.53;76.72
68230;BME280;55048;52.220;5.160;2022-09-16T04:28:29;100970.28;;;13.49;76.58
68230;BME280;55048;52.220;5.160;2022-09-16T04:31:00;100844.19;;;12.71;76.69
68230;BME280;55048;52.220;5.160;2022-09-16T04:33:28;100940.97;;;13.33;76.52
68230;BME280;55048;52.220;5.160;2022-09-16T04:35:53;100923.41;;;13.15;76.88
68230;BME280;55048;52.220;5.160;2022-09-16T04:38:25;100906.78;;;13.08;76.75
68230;BME280;55048;52.220;5.160;2022-09-16T04:40:50;100819.16;;;12.50;76.90
68230;BME280;55048;52.220;5.160;2022-09-16T04:43:18;100925.28;;;13.14;76.76
68230;BME280;55048;52.220;5.160;2022-09-16T04:45:43;100936.00;;;13.19;76.96
68230;BME280;55048;52.220;5.160;2022-09-16T04:48:09;100932.72;;;13.12;76.88
68230;BME280;55048;52.220;5.160;2022-09-16T04:50:34;100897.56;;;12.93;77.33
68230;BME280;55048;52.220;5.160;2022-09-16T04:53:00;100918.91;;;13.15;76.95
68230;BME280;55048;52.220;5.160;2022-09-16T04:55:25;100898.03;;;13.12;77.07
68230;BME280;55048;52.220;5.160;2022-09-16T04:57:50;100853.19;;;12.87;77.01
68230;BME280;55048;52.220;5.160;2022-09-16T05:00:16;100891.75;;;13.23;77.30
68230;BME280;55048;52.220;5.160;2022-09-16T05:02:45;100899.53;;;13.25;77.40
68230;BME280;55048;52.220;5.160;2022-09-16T05:05:11;100948.09;;;13.49;77.51
68230;BME280;55048;52.220;5.160;2022-09-16T05:07:37;100934.59;;;13.34;77.40
68230;BME280;55048;52.220;5.160;2022-09-16T05:10:03;100942.13;;;13.42;77.53
68230;BME280;55048;52.220;5.160;2022-09-16T05:12:28;100888.59;;;13.05;77.37
68230;BME280;55048;52.220;5.160;2022-09-16T05:14:54;100896.38;;;13.06;77.57
68230;BME280;55048;52.220;5.160;2022-09-16T05:17:19;100852.25;;;12.76;77.55
68230;BME280;55048;52.220;5.160;2022-09-16T05:19:44;100760.56;;;12.12;77.46
68230;BME280;55048;52.220;5.160;2022-09-16T05:22:10;100964.31;;;13.42;77.99
68230;BME280;55048;52.220;5.160;2022-09-16T05:24:35;100797.19;;;12.43;78.01
68230;BME280;55048;52.220;5.160;2022-09-16T05:27:01;100928.91;;;13.25;78.00
68230;BME280;55048;52.220;5.160;2022-09-16T05:29:26;100862.22;;;12.86;77.97
68230;BME280;55048;52.220;5.160;2022-09-16T05:31:52;100938.53;;;13.26;77.83
68230;BME280;55048;52.220;5.160;2022-09-16T05:34:19;100714.28;;;11.79;77.87
68230;BME280;55048;52.220;5.160;2022-09-16T05:36:46;100975.56;;;13.44;78.05
68230;BME280;55048;52.220;5.160;2022-09-16T05:39:13;100848.94;;;12.64;77.85
68230;BME280;55048;52.220;5.160;2022-09-16T05:41:43;100684.66;;;11.54;77.85
68230;BME280;55048;52.220;5.160;2022-09-16T05:44:08;100984.44;;;13.50;77.92
68230;BME280;55048;52.220;5.160;2022-09-16T05:46:34;100977.22;;;13.50;77.74
68230;BME280;55048;52.220;5.160;2022-09-16T05:49:00;100886.56;;;12.90;77.83
68230;BME280;55048;52.220;5.160;2022-09-16T05:51:26;100914.00;;;13.07;77.86
68230;BME280;55048;52.220;5.160;2022-09-16T05:53:52;100935.94;;;13.14;77.64
68230;BME280;55048;52.220;5.160;2022-09-16T05:56:23;100982.88;;;13.54;77.79
68230;BME280;55048;52.220;5.160;2022-09-16T05:58:54;100970.81;;;13.51;77.79
68230;BME280;55048;52.220;5.160;2022-09-16T06:01:22;100981.56;;;13.57;77.74
68230;BME280;55048;52.220;5.160;2022-09-16T06:03:49;100980.00;;;13.61;77.63
68230;BME280;55048;52.220;5.160;2022-09-16T06:08:54;100731.13;;;12.02;77.31
68230;BME280;55048;52.220;5.160;2022-09-16T06:11:20;100993.81;;;13.79;77.42
68230;BME280;55048;52.220;5.160;2022-09-16T06:13:45;100963.41;;;13.59;77.43
68230;BME280;55048;52.220;5.160;2022-09-16T06:16:11;100890.28;;;13.11;77.45
68230;BME280;55048;52.220;5.160;2022-09-16T06:18:39;100977.31;;;13.61;77.48
68230;BME280;55048;52.220;5.160;2022-09-16T06:21:09;101007.06;;;13.69;77.59
68230;BME280;55048;52.220;5.160;2022-09-16T06:23:36;100858.53;;;12.65;77.49
68230;BME280;55048;52.220;5.160;2022-09-16T06:26:07;100959.56;;;13.22;77.92
68230;BME280;55048;52.220;5.160;2022-09-16T06:28:33;100951.78;;;13.21;77.56
68230;BME280;55048;52.220;5.160;2022-09-16T06:31:21;100992.31;;;13.62;77.66
68230;BME280;55048;52.220;5.160;2022-09-16T06:33:47;100932.44;;;13.31;77.58
68230;BME280;55048;52.220;5.160;2022-09-16T06:36:17;100981.81;;;13.55;77.57
68230;BME280;55048;52.220;5.160;2022-09-16T06:38:44;100851.34;;;12.66;77.12
68230;BME280;55048;52.220;5.160;2022-09-16T06:41:11;100963.06;;;13.23;77.34
68230;BME280;55048;52.220;5.160;2022-09-16T06:43:37;100963.84;;;13.23;77.41
68230;BME280;55048;52.220;5.160;2022-09-16T06:46:08;100993.84;;;13.52;77.22
68230;BME280;55048;52.220;5.160;2022-09-16T06:48:44;100946.63;;;13.36;76.71
68230;BME280;55048;52.220;5.160;2022-09-16T06:51:15;100984.88;;;13.69;76.23
68230;BME280;55048;52.220;5.160;2022-09-16T06:53:41;100770.34;;;12.06;75.75
68230;BME280;55048;52.220;5.160;2022-09-16T06:56:15;100797.19;;;12.43;75.91
68230;BME280;55048;52.220;5.160;2022-09-16T06:58:42;100846.91;;;12.76;75.54
68230;BME280;55048;52.220;5.160;2022-09-16T07:01:10;101002.16;;;13.88;75.37
68230;BME280;55048;52.220;5.160;2022-09-16T07:03:37;100832.53;;;13.05;74.96
68230;BME280;55048;52.220;5.160;2022-09-16T07:06:03;100818.41;;;13.09;74.64
68230;BME280;55048;52.220;5.160;2022-09-16T07:08:32;100843.19;;;13.59;74.20
68230;BME280;55048;52.220;5.160;2022-09-16T07:11:00;100856.50;;;13.53;74.28
68230;BME280;55048;52.220;5.160;2022-09-16T07:13:26;100787.41;;;13.03;74.41
68230;BME280;55048;52.220;5.160;2022-09-16T07:15:51;100798.47;;;13.17;74.46
68230;BME280;55048;52.220;5.160;2022-09-16T07:18:17;100839.13;;;13.56;74.18
68230;BME280;55048;52.220;5.160;2022-09-16T07:20:42;100758.28;;;13.01;74.12
68230;BME280;55048;52.220;5.160;2022-09-16T07:23:07;100809.91;;;13.39;73.84
68230;BME280;55048;52.220;5.160;2022-09-16T07:25:33;100775.44;;;13.43;73.26
68230;BME280;55048;52.220;5.160;2022-09-16T07:27:59;100786.31;;;13.68;73.01
68230;BME280;55048;52.220;5.160;2022-09-16T07:30:24;100774.06;;;13.72;72.75
68230;BME280;55048;52.220;5.160;2022-09-16T07:32:52;101003.06;;;15.41;72.35
68230;BME280;55048;52.220;5.160;2022-09-16T07:35:18;100815.13;;;14.03;71.81
68230;BME280;55048;52.220;5.160;2022-09-16T07:37:43;101036.28;;;15.30;72.25
68230;BME280;55048;52.220;5.160;2022-09-16T07:40:08;100844.19;;;13.90;72.52
68230;BME280;55048;52.220;5.160;2022-09-16T07:42:34;100861.19;;;13.73;71.87
68230;BME280;55048;52.220;5.160;2022-09-16T07:44:59;100798.66;;;13.10;72.20
68230;BME280;55048;52.220;5.160;2022-09-16T07:47:25;100993.72;;;14.01;73.03
68230;BME280;55048;52.220;5.160;2022-09-16T07:49:50;100978.34;;;13.55;73.97
68230;BME280;55048;52.220;5.160;2022-09-16T07:52:23;100750.84;;;12.22;73.97
68230;BME280;55048;52.220;5.160;2022-09-16T07:54:56;100781.94;;;12.17;74.01
68230;BME280;55048;52.220;5.160;2022-09-16T07:57:22;100855.75;;;12.55;74.14
68230;BME280;55048;52.220;5.160;2022-09-16T07:59:48;100863.63;;;12.67;74.63
68230;BME280;55048;52.220;5.160;2022-09-16T08:02:13;100824.38;;;12.40;74.42
68230;BME280;55048;52.220;5.160;2022-09-16T08:04:39;100989.47;;;13.46;74.52
68230;BME280;55048;52.220;5.160;2022-09-16T08:07:05;100895.44;;;12.95;74.69
68230;BME280;55048;52.220;5.160;2022-09-16T08:09:30;100975.66;;;13.55;74.96
68230;BME280;55048;52.220;5.160;2022-09-16T08:11:56;100892.84;;;13.27;75.02
68230;BME280;55048;52.220;5.160;2022-09-16T08:14:22;100971.84;;;13.72;74.63
68230;BME280;55048;52.220;5.160;2022-09-16T08:16:47;100930.78;;;13.57;74.60
68230;BME280;55048;52.220;5.160;2022-09-16T08:19:15;101053.13;;;14.41;74.30
68230;BME280;55048;52.220;5.160;2022-09-16T08:21:41;101072.13;;;14.71;74.18
68230;BME280;55048;52.220;5.160;2022-09-16T08:24:08;101004.59;;;14.59;73.40
68230;BME280;55048;52.220;5.160;2022-09-16T08:26:34;100987.91;;;14.89;72.30
68230;BME280;55048;52.220;5.160;2022-09-16T08:29:00;100866.94;;;14.45;71.95
68230;BME280;55048;52.220;5.160;2022-09-16T08:31:26;100880.59;;;14.43;71.47
68230;BME280;55048;52.220;5.160;2022-09-16T08:33:51;100893.63;;;14.87;71.11
68230;BME280;55048;52.220;5.160;2022-09-16T08:36:19;100988.91;;;15.61;69.83
68230;BME280;55048;52.220;5.160;2022-09-16T08:38:47;101057.09;;;16.16;69.50
68230;BME280;55048;52.220;5.160;2022-09-16T08:43:46;100887.31;;;15.34;68.56
68230;BME280;55048;52.220;5.160;2022-09-16T08:51:57;100950.28;;;15.57;69.13
68230;BME280;55048;52.220;5.160;2022-09-16T08:54:48;100971.41;;;15.23;69.84
68230;BME280;55048;52.220;5.160;2022-09-16T08:57:17;100965.56;;;14.68;69.58
68230;BME280;55048;52.220;5.160;2022-09-16T08:59:51;100866.09;;;13.87;70.87
68230;BME280;55048;52.220;5.160;2022-09-16T09:02:24;101080.97;;;15.19;71.22
68230;BME280;55048;52.220;5.160;2022-09-16T09:04:52;101086.53;;;15.08;70.67
68230;BME280;55048;52.220;5.160;2022-09-16T09:08:12;101085.75;;;15.12;71.16
68230;BME280;55048;52.220;5.160;2022-09-16T09:10:50;101058.38;;;15.05;70.61
68230;BME280;55048;52.220;5.160;2022-09-16T09:19:00;101077.25;;;16.19;69.27
68230;BME280;55048;52.220;5.160;2022-09-16T09:21:54;101090.94;;;16.32;70.66
68230;BME280;55048;52.220;5.160;2022-09-16T09:24:48;101078.84;;;16.10;70.57
68230;BME280;55048;52.220;5.160;2022-09-16T09:27:26;100998.78;;;15.35;70.61
68230;BME280;55048;52.220;5.160;2022-09-16T09:30:01;101066.38;;;15.57;68.77
68230;BME280;55048;52.220;5.160;2022-09-16T09:38:33;101013.97;;;15.19;68.21
68230;BME280;55048;52.220;5.160;2022-09-16T09:44:37;101044.41;;;15.61;68.71
68230;BME280;55048;52.220;5.160;2022-09-16T09:46:43;100977.34;;;15.30;68.89
68230;BME280;55048;52.220;5.160;2022-09-16T09:49:14;101075.03;;;15.80;68.56
68230;BME280;55048;52.220;5.160;2022-09-16T09:51:55;101089.31;;;16.21;68.57
68230;BME280;55048;52.220;5.160;2022-09-16T09:54:26;101099.50;;;16.14;67.91
68230;BME280;55048;52.220;5.160;2022-09-16T09:59:48;101110.94;;;15.64;67.83
68230;BME280;55048;52.220;5.160;2022-09-16T10:02:21;101093.91;;;15.38;69.81
68230;BME280;55048;52.220;5.160;2022-09-16T10:04:47;101101.84;;;15.17;69.80
68230;BME280;55048;52.220;5.160;2022-09-16T10:07:19;101075.47;;;14.51;70.28
68230;BME280;55048;52.220;5.160;2022-09-16T10:12:32;101077.38;;;14.56;71.51
68230;BME280;55048;52.220;5.160;2022-09-16T10:14:58;100954.47;;;13.75;71.01
68230;BME280;55048;52.220;5.160;2022-09-16T10:17:24;100908.94;;;13.33;71.02
68230;BME280;55048;52.220;5.160;2022-09-16T10:19:55;100948.09;;;13.76;71.01
68230;BME280;55048;52.220;5.160;2022-09-16T10:22:32;100997.19;;;14.34;70.45
68230;BME280;55048;52.220;5.160;2022-09-16T10:25:16;101111.13;;;14.99;70.62
68230;BME280;55048;52.220;5.160;2022-09-16T10:27:53;101110.06;;;15.00;70.26
68230;BME280;55048;52.220;5.160;2022-09-16T10:30:19;100896.22;;;13.77;70.34
68230;BME280;55048;52.220;5.160;2022-09-16T10:32:49;101094.03;;;15.11;70.51
68230;BME280;55048;52.220;5.160;2022-09-16T10:35:22;100980.13;;;14.45;70.25
68230;BME280;55048;52.220;5.160;2022-09-16T10:37:57;100997.31;;;14.97;69.27
68230;BME280;55048;52.220;5.160;2022-09-16T10:40:24;101014.38;;;15.48;68.87
68230;BME280;55048;52.220;5.160;2022-09-16T10:42:53;100951.34;;;15.30;68.15
68230;BME280;55048;52.220;5.160;2022-09-16T10:45:29;101059.50;;;16.07;68.96
68230;BME280;55048;52.220;5.160;2022-09-16T10:48:01;100914.59;;;15.16;68.20
68230;BME280;55048;52.220;5.160;2022-09-16T10:50:29;100874.38;;;15.00;68.41
68230;BME280;55048;52.220;5.160;2022-09-16T10:52:55;101074.81;;;16.43;68.07
68230;BME280;55048;52.220;5.160;2022-09-16T10:55:27;101058.44;;;16.54;66.94
68230;BME280;55048;52.220;5.160;2022-09-16T10:58:08;100887.59;;;15.78;66.55
68230;BME280;55048;52.220;5.160;2022-09-16T11:01:05;101070.47;;;16.98;64.65
68230;BME280;55048;52.220;5.160;2022-09-16T11:04:03;101010.97;;;16.19;65.66
68230;BME280;55048;52.220;5.160;2022-09-16T11:17:27;101111.38;;;15.50;69.85
68230;BME280;55048;52.220;5.160;2022-09-16T11:22:42;101129.09;;;15.04;70.13
68230;BME280;55048;52.220;5.160;2022-09-16T11:30:46;101011.97;;;14.42;69.86
68230;BME280;55048;52.220;5.160;2022-09-16T11:34:35;101081.91;;;14.93;70.39
68230;BME280;55048;52.220;5.160;2022-09-16T11:36:34;101075.81;;;15.02;70.52
68230;BME280;55048;52.220;5.160;2022-09-16T11:44:47;101065.56;;;15.57;70.57
68230;BME280;55048;52.220;5.160;2022-09-16T11:55:45;101069.47;;;16.43;68.94
68230;BME280;55048;52.220;5.160;2022-09-16T11:58:45;101075.34;;;16.60;68.67
68230;BME280;55048;52.220;5.160;2022-09-16T12:01:34;100994.31;;;16.22;68.63
68230;BME280;55048;52.220;5.160;2022-09-16T12:04:11;101070.50;;;16.82;68.19
68230;BME280;55048;52.220;5.160;2022-09-16T12:09:17;101056.53;;;16.80;66.84
68230;BME280;55048;52.220;5.160;2022-09-16T12:11:48;100824.03;;;15.33;66.71
68230;BME280;55048;52.220;5.160;2022-09-16T12:14:29;101066.69;;;17.04;66.66
68230;BME280;55048;52.220;5.160;2022-09-16T12:17:00;101027.47;;;16.98;66.54
68230;BME280;55048;52.220;5.160;2022-09-16T12:20:04;101074.84;;;17.43;65.84
68230;BME280;55048;52.220;5.160;2022-09-16T12:22:44;101019.19;;;16.89;64.77
68230;BME280;55048;52.220;5.160;2022-09-16T12:30:20;101046.34;;;16.57;66.62
68230;BME280;55048;52.220;5.160;2022-09-16T12:33:26;101051.19;;;16.35;66.96
68230;BME280;55048;52.220;5.160;2022-09-16T12:36:00;101087.69;;;16.41;67.46
68230;BME280;55048;52.220;5.160;2022-09-16T12:38:28;100828.50;;;14.66;67.61
68230;BME280;55048;52.220;5.160;2022-09-16T12:41:19;100950.81;;;15.44;69.28
68230;BME280;55048;52.220;5.160;2022-09-16T12:46:57;101080.47;;;16.16;68.69
68230;BME280;55048;52.220;5.160;2022-09-16T12:49:40;101073.75;;;16.33;68.94
68230;BME280;55048;52.220;5.160;2022-09-16T12:55:27;101083.69;;;16.43;69.32
68230;BME280;55048;52.220;5.160;2022-09-16T13:00:57;101068.63;;;16.73;68.52
68230;BME280;55048;52.220;5.160;2022-09-16T13:03:32;101047.91;;;16.94;68.36
68230;BME280;55048;52.220;5.160;2022-09-16T13:06:06;101065.53;;;17.25;67.33
68230;BME280;55048;52.220;5.160;2022-09-16T13:08:39;101052.81;;;17.41;65.90
68230;BME280;55048;52.220;5.160;2022-09-16T13:11:07;101058.38;;;17.60;65.53
68230;BME280;55048;52.220;5.160;2022-09-16T13:13:41;101045.78;;;17.50;64.49
68230;BME280;55048;52.220;5.160;2022-09-16T13:16:10;101055.09;;;17.14;61.74
68230;BME280;55048;52.220;5.160;2022-09-16T13:18:43;101049.25;;;16.91;60.97
68230;BME280;55048;52.220;5.160;2022-09-16T13:21:20;101034.78;;;16.62;61.13
68230;BME280;55048;52.220;5.160;2022-09-16T13:23:52;101021.97;;;16.23;60.01
68230;BME280;55048;52.220;5.160;2022-09-16T13:26:21;101055.50;;;16.25;59.42
68230;BME280;55048;52.220;5.160;2022-09-16T13:28:46;101033.75;;;16.22;59.70
68230;BME280;55048;52.220;5.160;2022-09-16T13:33:48;101038.56;;;16.61;58.85
68230;BME280;55048;52.220;5.160;2022-09-16T13:38:56;101045.00;;;16.54;58.71
68230;BME280;55048;52.220;5.160;2022-09-16T13:41:38;101075.63;;;16.43;59.19
68230;BME280;55048;52.220;5.160;2022-09-16T13:47:30;101005.59;;;15.84;57.86
68230;BME280;55048;52.220;5.160;2022-09-16T13:51:21;101056.31;;;16.26;58.09
68230;BME280;55048;52.220;5.160;2022-09-16T13:54:27;100922.16;;;15.44;58.22
68230;BME280;55048;52.220;5.160;2022-09-16T13:57:26;101073.47;;;16.50;58.38
68230;BME280;55048;52.220;5.160;2022-09-16T14:00:17;101050.38;;;16.49;59.08
68230;BME280;55048;52.220;5.160;2022-09-16T14:08:28;101064.34;;;16.31;59.94
68230;BME280;55048;52.220;5.160;2022-09-16T14:13:23;101058.72;;;16.22;59.62
68230;BME280;55048;52.220;5.160;2022-09-16T14:15:51;101057.13;;;16.42;59.39
68230;BME280;55048;52.220;5.160;2022-09-16T14:18:21;101046.63;;;16.55;59.23
68230;BME280;55048;52.220;5.160;2022-09-16T14:21:36;101053.06;;;16.70;57.35
68230;BME280;55048;52.220;5.160;2022-09-16T14:23:42;101031.50;;;16.95;57.71
68230;BME280;55048;52.220;5.160;2022-09-16T14:26:12;101047.34;;;17.07;56.60
68230;BME280;55048;52.220;5.160;2022-09-16T14:28:39;101007.09;;;16.81;54.63
68230;BME280;55048;52.220;5.160;2022-09-16T14:31:11;101039.63;;;16.75;51.30
68230;BME280;55048;52.220;5.160;2022-09-16T14:33:49;101017.88;;;16.66;51.91
68230;BME280;55048;52.220;5.160;2022-09-16T14:36:29;101030.50;;;16.76;51.30
68230;BME280;55048;52.220;5.160;2022-09-16T14:39:02;101024.31;;;16.80;52.83
68230;BME280;55048;52.220;5.160;2022-09-16T14:41:31;101030.69;;;17.00;52.59
68230;BME280;55048;52.220;5.160;2022-09-16T14:44:19;100975.47;;;16.53;51.85
68230;BME280;55048;52.220;5.160;2022-09-16T14:47:56;101039.56;;;17.00;51.58
68230;BME280;55048;52.220;5.160;2022-09-16T14:49:54;101009.81;;;16.76;50.87
68230;BME280;55048;52.220;5.160;2022-09-16T14:52:29;101022.72;;;16.79;50.65
68230;BME280;55048;52.220;5.160;2022-09-16T14:54:56;101040.38;;;16.96;50.50
68230;BME280;55048;52.220;5.160;2022-09-16T14:57:26;101036.09;;;16.95;49.91
68230;BME280;55048;52.220;5.160;2022-09-16T14:59:58;101028.53;;;17.02;50.00
68230;BME280;55048;52.220;5.160;2022-09-16T15:02:34;101029.38;;;16.97;51.29
68230;BME280;55048;52.220;5.160;2022-09-16T15:07:36;101044.16;;;16.69;52.20
68230;BME280;55048;52.220;5.160;2022-09-16T15:10:17;101032.94;;;16.47;52.54
68230;BME280;55048;52.220;5.160;2022-09-16T15:12:47;101039.38;;;16.51;53.14
68230;BME280;55048;52.220;5.160;2022-09-16T15:15:25;101002.91;;;16.35;52.92
68230;BME280;55048;52.220;5.160;2022-09-16T15:20:34;101024.59;;;16.58;51.92
68230;BME280;55048;52.220;5.160;2022-09-16T15:23:02;101031.00;;;16.78;52.09
68230;BME280;55048;52.220;5.160;2022-09-16T15:25:31;101029.16;;;16.83;52.21
68230;BME280;55048;52.220;5.160;2022-09-16T15:28:18;101030.50;;;16.66;55.49
68230;BME280;55048;52.220;5.160;2022-09-16T15:30:49;101068.63;;;16.57;56.48
68230;BME280;55048;52.220;5.160;2022-09-16T15:33:44;101063.56;;;16.15;61.07